Time;durP1;ratioP1;P1;durP2;ratioP2;P2;SDS_P1;SDS_P2;PMS_P1;PMS_P2;Temp;Humidity;BMP_temperature;BMP_pressure;BME280_temperature;BME280_humidity;BME280_pressure;Samples;Min_cycle;Max_cycle;Signal;HPM_P1;HPM_P2
2022/03/22 00:01:44;;;;;;;14.97;12.13;;;2.90;49.50;;;1.38;60.32;99498.75;5012885;28;20480;-72
2022/03/22 00:04:11;;;;;;;16.57;12.60;;;2.90;49.40;;;1.36;60.64;99498.84;5013346;28;20481;-71
2022/03/22 00:06:40;;;;;;;21.53;12.53;;;2.80;49.20;;;1.37;60.22;99495.22;5016093;28;20478;-71
2022/03/22 00:09:07;;;;;;;15.23;11.60;;;2.80;49.10;;;1.11;59.86;99450.16;5015845;28;20441;-71
2022/03/22 00:11:34;;;;;;;16.90;13.00;;;2.90;49.10;;;1.41;60.06;99499.34;5016827;28;20460;-71
2022/03/22 00:14:02;;;;;;;17.40;11.03;;;2.90;49.00;;;1.41;59.53;99499.34;5016561;28;20873;-70
2022/03/22 00:16:29;;;;;;;15.37;11.77;;;2.80;48.90;;;1.45;59.67;99504.44;5016668;28;20446;-70
2022/03/22 00:18:56;;;;;;;16.73;11.10;;;2.90;48.80;;;1.50;59.28;99491.59;5016972;28;20935;-70
2022/03/22 00:21:25;;;;;;;17.20;12.80;;;2.90;48.50;;;1.49;58.94;99496.06;5015123;28;20989;-70
2022/03/22 00:23:54;;;;;;;16.20;12.00;;;2.90;48.40;;;1.52;58.91;99502.97;5016830;28;20529;-71
2022/03/22 00:26:21;;;;;;;15.50;11.23;;;3.00;48.30;;;1.53;58.79;99499.34;5031793;28;20532;-70
2022/03/22 00:28:48;;;;;;;16.70;11.97;;;3.00;48.20;;;1.53;58.77;99499.34;5016003;28;20460;-72
2022/03/22 00:31:16;;;;;;;14.80;11.57;;;3.00;48.00;;;1.54;58.32;99503.69;5014976;28;20930;-71
2022/03/22 00:33:43;;;;;;;17.00;11.03;;;3.00;47.90;;;1.58;58.30;99504.31;5016408;28;20556;-72
2022/03/22 00:36:11;;;;;;;13.80;11.20;;;3.00;47.80;;;1.50;58.40;99497.75;5016309;28;20465;-71
2022/03/22 00:38:38;;;;;;;17.07;12.03;;;3.00;47.80;;;1.53;58.41;99505.53;5016035;28;20437;-70
2022/03/22 00:41:06;;;;;;;17.20;12.40;;;3.00;47.80;;;1.54;58.23;99504.56;5016328;28;20451;-71
2022/03/22 00:43:34;;;;;;;15.77;11.60;;;3.00;47.80;;;1.45;58.09;99491.13;5016380;28;20443;-71
2022/03/22 00:46:01;;;;;;;14.40;11.43;;;3.00;47.60;;;1.53;57.58;99496.69;5016899;28;20435;-72
2022/03/22 00:48:28;;;;;;;15.33;11.53;;;3.00;47.50;;;1.44;57.48;99486.75;5014968;28;20441;-71
2022/03/22 00:50:56;;;;;;;13.13;11.50;;;3.00;47.50;;;1.52;57.75;99503.84;5016144;28;20524;-71
2022/03/22 00:53:23;;;;;;;13.63;10.73;;;3.00;47.50;;;1.42;57.83;99490.38;5014805;28;20460;-72
2022/03/22 00:55:50;;;;;;;15.57;12.07;;;3.00;47.40;;;1.41;57.71;99487.84;5014757;28;20443;-71
2022/03/22 00:58:19;;;;;;;17.07;11.80;;;2.90;47.40;;;1.46;57.58;99506.13;5016096;28;20478;-71
2022/03/22 01:00:48;;;;;;;14.53;11.20;;;2.90;47.40;;;1.51;57.48;99499.44;5015957;28;20453;-71
2022/03/22 01:03:15;;;;;;;15.80;10.90;;;3.00;47.30;;;1.44;57.39;99502.72;5015923;28;20505;-71
2022/03/22 01:05:42;;;;;;;14.70;11.67;;;2.90;47.20;;;1.48;57.65;99493.53;5016309;28;20520;-70
2022/03/22 01:08:12;;;;;;;12.57;11.13;;;2.90;47.20;;;1.47;57.24;99503.34;5031109;28;20792;-70
2022/03/22 01:10:42;;;;;;;12.60;10.70;;;2.90;47.10;;;1.49;57.08;99504.06;5030745;28;20477;-71
2022/03/22 01:13:10;;;;;;;16.00;12.10;;;2.90;46.90;;;1.47;56.56;99494.50;5031073;28;20443;-70
2022/03/22 01:15:42;;;;;;;12.40;10.87;;;3.00;46.80;;;1.47;56.65;99503.34;5015657;28;20474;-70
2022/03/22 01:18:11;;;;;;;16.40;11.13;;;3.00;46.80;;;1.10;56.46;99421.03;5014950;28;20949;-70
2022/03/22 01:20:41;;;;;;;13.37;11.07;;;3.00;46.60;;;1.48;56.20;99488.22;5015748;28;20902;-70
2022/03/22 01:23:09;;;;;;;15.90;11.17;;;3.00;46.50;;;1.46;56.30;99484.81;5015498;28;20474;-71
2022/03/22 01:25:39;;;;;;;15.20;11.20;;;3.00;46.60;;;1.52;56.73;99495.84;5013984;28;20447;-71
2022/03/22 01:28:09;;;;;;;13.57;11.20;;;3.00;46.50;;;1.59;56.55;99495.34;5031170;28;20770;-70
2022/03/22 01:30:39;;;;;;;12.83;10.60;;;3.00;46.50;;;1.50;56.30;99486.28;5014029;28;20789;-70
2022/03/22 01:33:06;;;;;;;13.43;10.70;;;3.00;46.50;;;1.46;56.71;99498.16;5015035;28;20437;-70
2022/03/22 01:35:34;;;;;;;13.87;10.70;;;2.90;46.60;;;1.37;56.70;99486.41;5013639;28;20528;-70
2022/03/22 01:38:01;;;;;;;15.40;12.10;;;2.90;46.70;;;1.08;57.01;99449.56;5015284;28;20448;-70
2022/03/22 01:40:31;;;;;;;12.10;10.53;;;2.90;46.80;;;1.30;57.16;99486.03;5015266;28;20441;-70
2022/03/22 01:42:59;;;;;;;18.80;10.60;;;2.80;46.70;;;1.24;57.33;99497.16;5014230;28;20433;-70
2022/03/22 01:45:26;;;;;;;14.90;10.87;;;2.70;46.90;;;1.24;57.34;99482.03;5030328;28;20439;-71
2022/03/22 01:48:00;;;;;;;16.27;11.37;;;2.70;47.20;;;1.22;57.36;99489.28;5013371;28;20501;-71
2022/03/22 01:50:27;;;;;;;14.40;11.30;;;2.70;47.10;;;1.08;57.81;99486.84;5015402;28;20434;-71
2022/03/22 01:52:57;;;;;;;12.10;9.40;;;2.60;47.10;;;1.11;57.64;99491.94;5015269;28;20449;-70
2022/03/22 01:55:25;;;;;;;14.33;11.17;;;2.50;47.10;;;1.11;57.97;99489.25;5015045;28;20512;-70
2022/03/22 01:57:52;;;;;;;12.60;10.10;;;2.60;47.10;;;1.09;57.36;99485.88;5014499;28;20441;-70
2022/03/22 02:00:21;;;;;;;12.47;10.33;;;2.50;46.90;;;1.01;57.58;99470.50;5014935;28;20867;-70
2022/03/22 02:05:52;;;;;;;16.33;11.27;;;2.50;47.10;;;1.01;58.23;99481.16;5015124;28;20453;-71
2022/03/22 02:08:21;;;;;;;13.20;10.23;;;2.50;47.10;;;0.90;58.19;99473.13;5029656;28;20962;-72
2022/03/22 02:10:48;;;;;;;14.80;10.30;;;2.40;47.50;;;0.87;57.92;99473.38;5030683;28;20794;-70
2022/03/22 02:13:16;;;;;;;15.90;11.00;;;2.30;47.20;;;0.88;58.30;99475.06;5014850;28;20442;-70
2022/03/22 02:15:47;;;;;;;13.53;10.37;;;2.30;47.20;;;0.80;58.26;99465.84;5013230;28;20549;-70
2022/03/22 02:18:15;;;;;;;15.97;11.47;;;2.30;47.20;;;0.72;58.22;99460.28;5013939;28;20507;-71
2022/03/22 02:20:45;;;;;;;14.10;10.73;;;2.30;47.40;;;0.72;58.42;99454.09;5029840;28;20437;-69
2022/03/22 02:23:20;;;;;;;13.63;10.43;;;2.20;47.30;;;0.74;58.30;99463.66;5014707;28;20460;-71
2022/03/22 02:25:50;;;;;;;15.63;10.67;;;2.20;47.40;;;0.69;58.82;99465.81;5014678;28;20459;-70
2022/03/22 02:28:19;;;;;;;14.33;10.20;;;2.20;47.30;;;0.72;58.45;99459.41;5014198;28;20432;-69
2022/03/22 02:30:47;;;;;;;16.53;11.00;;;2.20;47.40;;;0.70;58.61;99464.88;5014309;28;20961;-71
2022/03/22 02:33:14;;;;;;;13.63;10.33;;;2.20;47.30;;;0.59;58.68;99463.00;5014262;28;20441;-70
2022/03/22 02:35:41;;;;;;;13.60;10.87;;;2.20;47.40;;;0.64;58.76;99467.97;5013104;28;20465;-71
2022/03/22 02:38:08;;;;;;;12.13;9.93;;;2.10;47.40;;;0.44;58.71;99433.09;5013573;28;20488;-71
2022/03/22 02:40:36;;;;;;;15.30;11.80;;;2.10;47.30;;;0.52;59.03;99459.94;5014393;28;20528;-69
2022/03/22 02:43:04;;;;;;;15.83;11.70;;;2.10;47.40;;;0.46;58.84;99465.75;5014045;28;20433;-70
2022/03/22 02:45:32;;;;;;;14.90;12.00;;;2.00;47.30;;;0.41;59.19;99452.78;5029284;28;20445;-70
2022/03/22 02:47:59;;;;;;;12.90;10.00;;;2.00;47.50;;;0.44;59.29;99450.84;5013974;28;20437;-70
2022/03/22 02:50:27;;;;;;;14.03;11.27;;;2.00;47.40;;;0.32;59.57;99465.91;5013954;28;20530;-71
2022/03/22 02:52:54;;;;;;;13.93;11.27;;;1.90;47.60;;;0.33;59.40;99463.16;5013982;28;20469;-71
2022/03/22 02:55:21;;;;;;;13.73;9.70;;;1.80;47.50;;;0.38;58.70;99463.66;5013849;28;20465;-70
2022/03/22 02:57:49;;;;;;;14.20;9.50;;;1.80;47.40;;;0.32;58.78;99466.78;5013764;28;20449;-70
2022/03/22 03:00:18;;;;;;;11.47;10.27;;;1.80;47.30;;;0.27;59.27;99461.78;5012782;28;20433;-71
2022/03/22 03:02:48;;;;;;;14.70;11.33;;;1.80;47.40;;;0.26;58.95;99462.75;5013815;28;20440;-71
2022/03/22 03:05:15;;;;;;;11.33;9.90;;;1.80;47.30;;;0.27;58.88;99466.25;5013774;28;20453;-71
2022/03/22 03:07:42;;;;;;;14.10;11.03;;;1.80;47.30;;;0.29;58.68;99464.31;5013439;28;20517;-69
2022/03/22 03:10:10;;;;;;;15.40;11.30;;;1.80;47.20;;;0.04;58.80;99428.94;5013429;28;20474;-69
2022/03/22 03:12:38;;;;;;;14.10;10.30;;;1.80;47.20;;;0.14;58.90;99453.03;5013799;28;20520;-70
2022/03/22 03:15:08;;;;;;;13.73;10.07;;;1.70;47.10;;;0.12;59.36;99462.94;5012219;28;20552;-70
2022/03/22 03:17:37;;;;;;;14.10;10.20;;;1.70;47.30;;;0.04;58.58;99452.00;5012866;28;20534;-70
2022/03/22 03:20:07;;;;;;;12.30;9.77;;;1.70;47.00;;;0.16;58.21;99464.41;5013643;28;20495;-70
2022/03/22 03:22:34;;;;;;;14.10;10.23;;;1.70;46.90;;;0.13;58.15;99459.31;5013798;28;20445;-70
2022/03/22 03:25:01;;;;;;;12.23;9.07;;;1.70;46.70;;;0.18;58.41;99464.28;5012132;28;20829;-70
2022/03/22 03:27:27;;;;;;;13.43;10.40;;;1.70;46.80;;;0.18;57.67;99469.59;5013931;28;20464;-71
2022/03/22 03:29:54;;;;;;;14.47;11.03;;;1.70;46.60;;;-0.15;58.08;99416.16;5012371;28;20529;-70
2022/03/22 03:32:22;;;;;;;15.47;10.00;;;1.70;46.60;;;0.04;57.96;99452.00;5013595;28;20481;-71
2022/03/22 03:34:50;;;;;;;14.20;10.20;;;1.60;46.30;;;0.04;57.65;99462.63;5028242;28;20561;-71
2022/03/22 03:37:17;;;;;;;11.03;9.37;;;1.60;46.30;;;0.14;57.31;99476.97;5013845;28;20437;-70
2022/03/22 03:39:44;;;;;;;11.60;9.83;;;1.70;46.30;;;0.15;57.31;99468.03;5012225;28;20907;-70
2022/03/22 03:42:11;;;;;;;13.33;10.30;;;1.70;45.90;;;0.14;56.68;99464.50;5016709;28;20446;-70
2022/03/22 03:47:23;;;;;;;13.07;9.93;;;1.70;45.40;;;0.20;55.91;99471.19;5015736;28;20540;-71
2022/03/22 03:49:55;;;;;;;10.87;9.20;;;1.70;45.30;;;0.25;55.57;99463.72;5016439;28;20541;-70
2022/03/22 03:52:25;;;;;;;16.50;10.50;;;1.80;44.90;;;0.14;55.64;99464.50;5016195;28;20540;-70
2022/03/22 03:54:53;;;;;;;11.90;9.00;;;1.70;44.80;;;0.24;55.78;99471.81;5017332;28;20465;-71
2022/03/22 03:57:22;;;;;;;13.43;10.20;;;1.80;44.80;;;0.13;55.35;99472.59;5017370;28;20537;-70
2022/03/22 03:59:50;;;;;;;12.80;9.80;;;1.70;44.60;;;0.18;55.18;99473.09;5017043;28;20492;-69
2022/03/22 04:02:17;;;;;;;12.43;10.03;;;1.70;44.70;;;0.12;55.52;99462.94;5015896;28;20527;-70
2022/03/22 04:04:47;;;;;;;16.53;9.43;;;1.70;44.50;;;0.12;55.42;99474.41;5032964;28;20451;-70
2022/03/22 04:07:17;;;;;;;12.17;10.40;;;1.60;44.50;;;0.05;55.78;99467.00;5016223;28;20433;-69
2022/03/22 04:09:44;;;;;;;13.27;9.70;;;1.70;44.70;;;0.09;55.95;99473.78;5016883;28;20440;-70
2022/03/22 04:12:12;;;;;;;11.50;9.30;;;1.60;44.60;;;0.02;55.71;99477.84;5016754;28;20445;-70
2022/03/22 04:14:39;;;;;;;13.00;9.00;;;1.60;44.60;;;-0.03;55.77;99484.34;5015354;28;20476;-70
2022/03/22 04:17:08;;;;;;;12.50;8.80;;;1.50;44.80;;;-0.05;55.95;99480.09;5016685;28;20455;-71
2022/03/22 04:19:36;;;;;;;13.27;9.70;;;1.50;44.80;;;-0.08;56.04;99478.50;5016679;28;20443;-70
2022/03/22 04:22:04;;;;;;;13.03;9.40;;;1.40;44.80;;;-0.15;56.44;99488.75;5016905;28;20437;-70
2022/03/22 04:24:32;;;;;;;13.00;9.90;;;1.40;45.00;;;-0.12;55.84;99487.66;5017213;28;20541;-70
2022/03/22 04:32:42;;;;;;;11.07;8.87;;;1.40;44.70;;;-0.20;56.13;99487.38;4998770;28;20452;-70
2022/03/22 04:35:10;;;;;;;13.73;10.10;;;1.40;44.70;;;-0.19;55.98;99491.75;5015707;28;20479;-70
2022/03/22 04:37:37;;;;;;;12.70;10.10;;;1.30;44.60;;;-0.23;55.96;99496.41;5016455;28;20467;-70
2022/03/22 04:40:08;;;;;;;13.00;9.93;;;1.30;44.60;;;-0.24;55.93;99496.50;5016864;28;20518;-70
2022/03/22 04:42:35;;;;;;;12.47;10.03;;;1.30;44.70;;;-0.28;56.18;99490.59;5016337;28;20468;-70
2022/03/22 04:45:03;;;;;;;13.50;10.13;;;1.30;44.70;;;-0.45;56.55;99471.41;5015763;28;20436;-69
2022/03/22 04:47:30;;;;;;;12.60;9.90;;;1.20;44.60;;;-0.39;56.35;99501.97;5016308;28;20468;-70
2022/03/22 04:49:57;;;;;;;12.10;10.03;;;1.20;44.70;;;-0.37;56.07;99499.19;5016030;28;20527;-70
2022/03/22 04:57:55;;;;;;;12.20;9.73;;;1.20;44.60;;;-0.35;55.71;99499.94;5014880;28;20458;-69
2022/03/22 05:00:22;;;;;;;12.17;9.50;;;1.20;44.40;;;-0.31;55.78;99498.75;5016120;28;20939;-69
2022/03/22 05:02:49;;;;;;;12.50;9.67;;;1.20;44.40;;;-0.39;55.65;99496.66;5015661;28;20927;-69
2022/03/22 05:06:25;;;;;;;10.40;8.80;;;1.20;44.30;;;-0.34;55.15;99499.84;5015640;28;20527;-70
2022/03/22 05:08:05;;;;;;;10.90;8.60;;;1.20;44.10;;;-0.30;54.64;99503.97;5014511;28;20442;-70
2022/03/22 05:10:33;;;;;;;12.60;9.73;;;1.20;43.90;;;-0.23;54.76;99498.22;5015550;28;20435;-71
2022/03/22 05:13:00;;;;;;;13.07;7.90;;;1.30;44.00;;;-0.21;54.17;99493.66;5014408;28;20447;-70
2022/03/22 05:15:28;;;;;;;11.23;8.13;;;1.40;43.40;;;-0.23;54.28;99506.19;5015298;28;20498;-71
2022/03/22 05:17:57;;;;;;;11.30;8.33;;;1.30;43.50;;;-0.13;54.01;99506.41;5015618;28;20446;-70
2022/03/22 05:20:24;;;;;;;10.83;8.93;;;1.40;43.30;;;-0.08;53.63;99510.38;5015600;28;20912;-69
2022/03/22 05:22:52;;;;;;;12.70;9.87;;;1.40;43.20;;;-0.12;53.56;99498.28;5030973;28;20502;-70
2022/03/22 05:25:19;;;;;;;11.83;9.70;;;1.40;43.00;;;-0.14;52.85;99502.88;5014324;28;20442;-70
2022/03/22 05:27:48;;;;;;;13.63;8.73;;;1.40;42.70;;;-0.07;53.11;99508.59;5031662;28;20436;-71
2022/03/22 05:30:15;;;;;;;13.03;9.90;;;1.50;42.80;;;-0.12;52.95;99508.91;5014133;28;20915;-71
2022/03/22 05:32:42;;;;;;;10.73;8.77;;;1.50;42.80;;;-0.11;53.53;99500.00;5030115;28;20432;-70
2022/03/22 05:35:10;;;;;;;12.53;9.57;;;1.50;42.70;;;-0.08;52.77;99510.38;5015237;28;20460;-70
2022/03/22 05:37:37;;;;;;;13.87;9.70;;;1.50;42.70;;;-0.16;53.35;99502.97;5013644;28;20908;-70
2022/03/22 05:40:06;;;;;;;15.37;10.30;;;1.50;43.00;;;-0.04;53.19;99514.53;5015004;28;20433;-70
2022/03/22 05:42:37;;;;;;;12.07;9.23;;;1.50;42.80;;;-0.04;53.29;99516.34;5030769;28;21001;-70
2022/03/22 05:45:08;;;;;;;13.17;10.00;;;1.50;42.70;;;-0.07;53.29;99514.78;5015461;28;20890;-71
2022/03/22 05:47:36;;;;;;;13.87;9.67;;;1.50;42.70;;;-0.06;53.05;99508.50;5014356;28;20460;-69
2022/03/22 05:50:05;;;;;;;12.87;10.13;;;1.50;42.70;;;0.01;52.76;99508.91;5030349;28;20539;-70
2022/03/22 05:52:32;;;;;;;13.00;9.50;;;1.60;42.60;;;-0.02;53.25;99515.28;5014132;28;20450;-70
2022/03/22 05:55:00;;;;;;;14.47;10.57;;;1.60;42.90;;;0.04;52.88;99510.47;5013838;28;20476;-71
2022/03/22 05:57:26;;;;;;;12.40;9.70;;;1.60;42.50;;;0.10;52.32;99505.56;5014247;28;20437;-69
2022/03/22 05:59:53;;;;;;;13.07;9.07;;;1.70;42.40;;;0.24;51.80;99509.88;5015202;28;20447;-69
2022/03/22 06:02:22;;;;;;;10.80;9.10;;;1.80;42.30;;;0.18;52.16;99505.00;5030936;28;20540;-69
2022/03/22 06:04:49;;;;;;;13.33;9.60;;;1.80;42.20;;;0.27;51.66;99507.00;5021276;28;20563;-73
2022/03/22 06:07:18;;;;;;;11.10;9.23;;;1.80;42.10;;;0.38;52.31;99508.84;5021125;28;20524;-74
2022/03/22 06:09:45;;;;;;;13.83;9.53;;;1.90;42.20;;;0.38;51.43;99510.66;5015189;28;20512;-75
2022/03/22 06:12:13;;;;;;;15.10;10.47;;;1.90;42.00;;;0.10;51.47;99448.91;5029845;28;20440;-74
2022/03/22 06:14:40;;;;;;;13.53;9.63;;;2.00;42.00;;;0.61;50.95;99506.31;5030370;28;20486;-75
2022/03/22 06:17:07;;;;;;;20.07;10.90;;;2.10;41.80;;;0.64;50.88;99513.19;5014513;28;20554;-67
2022/03/22 06:19:35;;;;;;;12.23;9.50;;;2.20;41.60;;;0.64;51.20;99516.72;5014138;28;20553;-67
2022/03/22 06:22:03;;;;;;;13.37;9.57;;;2.20;41.70;;;0.77;50.34;99516.63;5013085;28;20449;-68
2022/03/22 06:24:30;;;;;;;15.93;9.50;;;2.20;41.50;;;0.80;50.36;99524.38;5014880;28;20923;-66
2022/03/22 06:26:56;;;;;;;15.63;9.27;;;2.30;41.40;;;0.83;50.28;99520.66;5014251;28;20524;-67
2022/03/22 06:29:24;;;;;;;15.03;9.70;;;2.30;41.30;;;0.92;49.97;99524.44;5012333;28;20882;-68
2022/03/22 06:31:52;;;;;;;13.20;9.03;;;2.40;41.20;;;0.90;49.83;99529.84;5012447;28;20442;-66
2022/03/22 06:34:19;;;;;;;13.03;9.23;;;2.50;41.00;;;1.05;49.54;99533.19;5013165;28;20472;-66
2022/03/22 06:36:48;;;;;;;13.97;8.93;;;2.50;41.10;;;1.16;49.32;99532.34;5013750;28;20930;-68
2022/03/22 06:39:15;;;;;;;16.97;10.87;;;2.70;41.10;;;1.27;48.88;99539.50;5013761;28;20904;-67
2022/03/22 06:41:42;;;;;;;14.63;10.60;;;2.80;41.00;;;1.35;48.84;99537.13;5013656;28;20918;-66
2022/03/22 06:44:08;;;;;;;12.40;9.27;;;2.80;40.90;;;1.38;48.44;99542.19;5012166;28;20445;-67
2022/03/22 06:46:36;;;;;;;16.23;8.90;;;2.90;40.60;;;1.46;48.52;99543.44;5028840;28;20881;-68
2022/03/22 06:49:03;;;;;;;14.97;9.80;;;2.90;40.50;;;1.62;48.50;99538.59;5012260;28;20515;-67
2022/03/22 06:51:30;;;;;;;10.20;9.13;;;3.10;40.80;;;1.66;48.30;99544.50;5011876;28;20553;-67
2022/03/22 06:53:58;;;;;;;13.27;10.50;;;3.10;40.60;;;1.69;48.09;99550.44;5011941;28;20551;-67
2022/03/22 06:56:25;;;;;;;11.80;9.23;;;3.20;40.50;;;1.67;47.81;99541.72;5013381;28;20469;-66
2022/03/22 06:58:52;;;;;;;13.47;9.00;;;3.20;40.40;;;1.78;47.60;99543.53;5012426;28;20529;-66
2022/03/22 07:01:19;;;;;;;12.60;9.10;;;3.30;40.50;;;1.96;46.90;99546.56;5010157;28;20776;-64
2022/03/22 07:03:46;;;;;;;14.77;10.43;;;3.40;40.20;;;1.88;47.11;99546.31;5010693;28;20521;-66
2022/03/22 07:06:12;;;;;;;15.93;10.00;;;3.40;39.80;;;1.94;47.05;99548.53;5012980;28;20771;-66
2022/03/22 07:08:39;;;;;;;12.03;8.97;;;3.40;40.00;;;2.11;46.49;99555.16;5028651;28;20469;-66
2022/03/22 07:13:53;;;;;;;15.20;9.07;;;3.60;40.30;;;2.37;45.96;99549.53;5013442;28;20892;-67
2022/03/22 07:16:20;;;;;;;12.53;9.13;;;3.80;39.70;;;2.46;45.77;99537.25;5012051;28;20484;-66
2022/03/22 07:18:47;;;;;;;14.83;10.53;;;3.90;39.60;;;2.61;45.38;99547.66;5013841;28;20530;-67
2022/03/22 07:21:14;;;;;;;14.43;10.30;;;4.00;39.50;;;2.76;45.59;99549.03;5013095;28;20446;-65
2022/03/22 07:23:41;;;;;;;11.30;9.20;;;4.10;39.50;;;2.78;44.82;99546.25;5010617;28;20545;-67
2022/03/22 07:26:09;;;;;;;13.50;10.17;;;4.20;39.30;;;2.82;45.04;99547.69;5013206;28;20443;-67
2022/03/22 07:28:36;;;;;;;12.47;9.43;;;4.20;39.10;;;2.91;44.65;99546.06;5007792;28;20549;-67
2022/03/22 07:31:03;;;;;;;12.60;9.30;;;4.30;39.20;;;3.04;43.95;99545.91;5013315;28;20447;-66
2022/03/22 07:33:30;;;;;;;12.50;9.23;;;4.40;38.90;;;3.17;44.24;99545.72;5011752;28;20446;-69
2022/03/22 07:35:57;;;;;;;12.93;9.43;;;4.50;39.00;;;3.32;44.01;99547.06;5011948;28;20569;-68
2022/03/22 07:38:25;;;;;;;14.27;10.00;;;4.70;38.80;;;3.52;43.30;99550.72;5011846;28;20448;-68
2022/03/22 07:40:52;;;;;;;10.10;9.00;;;4.90;38.90;;;3.37;42.98;99546.69;5013270;28;20494;-67
2022/03/22 07:43:21;;;;;;;12.20;8.73;;;4.80;38.20;;;3.64;42.95;99554.13;5011654;28;20442;-67
2022/03/22 07:45:48;;;;;;;11.70;9.03;;;5.00;38.50;;;3.75;42.36;99547.03;5012914;28;20434;-67
2022/03/22 07:48:16;;;;;;;12.60;9.57;;;5.10;38.40;;;3.83;42.01;99552.53;5011728;28;20937;-67
2022/03/22 07:53:28;;;;;;;13.37;9.30;;;5.30;38.10;;;4.09;41.26;99546.72;5013390;28;20782;-67
2022/03/22 07:55:55;;;;;;;13.43;10.67;;;5.50;37.80;;;4.18;41.88;99548.59;5013307;28;20546;-67
2022/03/22 07:58:23;;;;;;;11.07;9.30;;;5.60;38.10;;;4.37;41.11;99550.44;5027872;28;20510;-67
2022/03/22 08:00:50;;;;;;;10.50;9.30;;;5.70;37.90;;;4.42;40.77;99544.69;5012933;28;20478;-67
2022/03/22 08:03:18;;;;;;;13.03;9.20;;;5.80;37.90;;;4.48;40.56;99546.81;5011562;28;20443;-66
2022/03/22 08:05:46;;;;;;;11.30;9.17;;;5.80;37.40;;;4.63;39.99;99557.13;5011385;28;20450;-66
2022/03/22 08:08:14;;;;;;;11.27;9.20;;;5.90;37.40;;;4.72;40.23;99552.75;5011258;28;20443;-67
2022/03/22 08:10:44;;;;;;;9.73;8.70;;;6.10;37.40;;;4.80;39.78;99556.44;5012349;28;20937;-67
2022/03/22 08:13:12;;;;;;;11.67;9.00;;;6.10;36.80;;;4.92;39.37;99550.91;5012218;28;20444;-69
2022/03/22 08:15:41;;;;;;;14.53;9.50;;;6.20;36.70;;;5.02;39.25;99553.63;5010981;28;20915;-67
2022/03/22 08:18:10;;;;;;;10.80;8.73;;;6.30;36.80;;;5.30;39.13;99545.66;5012654;28;20467;-68
2022/03/22 08:20:37;;;;;;;11.23;9.33;;;6.50;37.10;;;5.29;38.77;99550.19;5012374;28;20500;-68
2022/03/22 08:23:06;;;;;;;13.40;9.43;;;6.60;36.90;;;5.42;38.94;99551.72;5011487;28;20513;-67
2022/03/22 08:25:36;;;;;;;9.20;8.10;;;6.70;36.90;;;5.60;38.57;99547.28;5012545;28;20435;-67
2022/03/22 08:28:07;;;;;;;10.30;9.10;;;6.80;37.10;;;5.57;38.58;99547.59;5013657;28;20466;-68
2022/03/22 08:30:34;;;;;;;13.80;9.57;;;6.90;36.60;;;5.66;38.41;99546.69;5016318;28;20485;-67
2022/03/22 08:33:07;;;;;;;14.60;9.77;;;6.90;36.60;;;5.79;38.72;99545.53;5015831;28;20454;-68
2022/03/22 08:35:35;;;;;;;13.33;9.20;;;7.00;36.90;;;5.93;37.88;99545.06;5016936;28;20511;-68
2022/03/22 08:38:04;;;;;;;11.70;8.73;;;7.20;36.50;;;6.05;37.94;99534.16;5015841;28;20482;-68
2022/03/22 08:40:51;;;;;;;13.60;9.33;;;7.40;36.40;;;6.10;37.42;99537.25;5016354;28;20419;-67
2022/03/22 08:43:19;;;;;;;12.63;9.10;;;7.40;36.40;;;6.33;37.43;99532.31;5031117;28;20999;-68
2022/03/22 08:45:46;;;;;;;12.47;8.90;;;7.50;36.70;;;6.43;37.03;99536.78;5015698;28;20562;-67
2022/03/22 08:48:14;;;;;;;11.33;8.83;;;7.60;36.10;;;6.24;36.46;99528.69;5014753;28;20443;-67
2022/03/22 08:50:45;;;;;;;13.90;8.83;;;7.60;35.70;;;6.22;36.76;99536.03;5014483;28;20514;-68
2022/03/22 08:53:13;;;;;;;12.87;9.50;;;7.50;35.90;;;6.49;37.43;99525.41;5015444;28;20911;-68
2022/03/22 08:55:42;;;;;;;12.60;9.40;;;7.70;36.30;;;6.75;36.42;99520.16;5014653;28;20502;-67
2022/03/22 08:58:09;;;;;;;10.73;9.20;;;7.90;36.00;;;6.84;35.79;99515.69;5015568;28;20475;-68
2022/03/22 09:00:37;;;;;;;10.67;9.17;;;8.00;35.90;;;6.95;36.15;99525.34;5014208;28;20483;-68
2022/03/22 09:03:06;;;;;;;13.03;9.40;;;8.10;35.80;;;6.97;36.05;99517.97;5015729;28;20467;-68
2022/03/22 09:08:19;;;;;;;9.93;8.40;;;8.30;35.80;;;7.21;35.25;99516.50;5014241;28;20443;-69
2022/03/22 09:10:46;;;;;;;13.20;9.43;;;8.40;35.60;;;7.27;35.32;99517.69;5015271;28;20520;-68
2022/03/22 09:13:14;;;;;;;8.87;7.57;;;8.50;35.60;;;7.29;34.47;99505.78;5014165;28;20453;-69
2022/03/22 09:15:43;;;;;;;10.77;8.23;;;8.50;35.30;;;7.27;34.96;99506.94;5015638;28;20550;-67
2022/03/22 09:18:14;;;;;;;11.07;8.73;;;8.60;35.30;;;7.42;34.74;99502.66;5014371;28;20818;-69
2022/03/22 09:20:43;;;;;;;11.40;9.13;;;8.60;35.40;;;7.65;34.54;99494.88;5015695;28;20470;-69
2022/03/22 09:23:11;;;;;;;14.00;8.83;;;8.80;35.10;;;7.88;34.67;99502.41;5013939;28;20501;-67
2022/03/22 09:25:39;;;;;;;10.07;8.87;;;9.00;35.30;;;7.60;34.33;99502.59;5013475;28;20435;-67
2022/03/22 09:28:07;;;;;;;9.50;8.03;;;8.90;35.00;;;7.94;34.24;99499.06;5015104;28;20546;-68
2022/03/22 09:30:35;;;;;;;10.20;8.23;;;9.10;35.10;;;8.04;34.05;99500.78;5015277;28;20439;-67
2022/03/22 09:33:04;;;;;;;10.20;9.00;;;9.20;35.20;;;8.13;34.43;99501.66;5014723;28;20530;-67
2022/03/22 09:35:32;;;;;;;9.17;8.30;;;9.20;35.40;;;8.32;34.41;99495.97;5015364;28;20451;-68
2022/03/22 09:38:00;;;;;;;11.07;8.30;;;9.40;35.40;;;8.45;33.99;99500.06;5014753;28;20455;-67
2022/03/22 09:40:28;;;;;;;10.23;8.47;;;9.60;35.50;;;8.69;32.94;99493.91;5015035;28;20986;-68
2022/03/22 09:42:55;;;;;;;13.60;8.47;;;9.70;35.00;;;8.74;33.06;99486.16;5013720;28;20854;-67
2022/03/22 09:45:26;;;;;;;9.17;8.27;;;9.90;35.00;;;8.88;32.74;99481.13;5015136;28;20907;-66
2022/03/22 09:47:54;;;;;;;10.47;9.00;;;10.00;34.10;;;9.11;33.08;99475.03;5030613;28;20451;-67
2022/03/22 09:51:44;;;;;;;9.07;8.17;;;10.20;34.40;;;9.21;32.27;99481.09;5015125;28;20627;-67
2022/03/22 09:53:13;;;;;;;9.00;8.10;;;10.30;33.60;;;9.21;31.92;99473.81;5012895;28;20531;-66
2022/03/22 09:55:40;;;;;;;8.37;7.57;;;10.40;33.30;;;9.28;31.64;99478.56;5014536;28;20467;-69
2022/03/22 09:58:07;;;;;;;13.43;9.50;;;10.40;33.20;;;9.52;30.96;99476.81;5012280;28;20779;-66
2022/03/22 10:00:34;;;;;;;9.57;8.57;;;10.60;33.00;;;9.53;31.08;99475.78;5029884;28;20214;-66
2022/03/22 10:03:01;;;;;;;7.93;6.90;;;10.70;32.60;;;9.69;29.79;99467.63;5014518;28;20536;-66
2022/03/22 10:05:28;;;;;;;8.60;7.70;;;10.80;32.30;;;9.89;30.08;99472.66;5014999;28;20463;-67
2022/03/22 10:08:01;;;;;;;10.40;7.63;;;10.90;32.20;;;9.95;29.33;99468.41;5015148;28;20456;-66
2022/03/22 10:10:29;;;;;;;8.03;7.33;;;11.10;31.80;;;10.13;28.22;99463.56;5014343;28;20524;-66
2022/03/22 10:12:59;;;;;;;9.53;7.10;;;11.20;31.70;;;10.21;28.00;99473.50;5029666;28;20474;-66
2022/03/22 10:15:31;;;;;;;9.63;7.60;;;11.30;30.90;;;10.29;28.82;99464.50;5014443;28;20441;-66
2022/03/22 10:18:05;;;;;;;10.97;7.60;;;11.40;31.30;;;10.49;28.04;99454.94;5013631;28;20747;-67
2022/03/22 10:20:35;;;;;;;8.53;6.80;;;11.50;31.10;;;10.65;27.92;99452.31;5012684;28;20810;-67
2022/03/22 10:23:05;;;;;;;8.37;7.30;;;11.70;31.40;;;10.40;27.02;99450.59;5014155;28;20842;-67
2022/03/22 10:25:38;;;;;;;10.37;7.53;;;11.60;30.30;;;10.41;27.46;99446.91;5012908;28;20977;-66
2022/03/22 10:28:07;;;;;;;8.57;7.67;;;11.60;30.50;;;10.76;27.62;99449.16;5013601;28;20444;-66
2022/03/22 10:30:35;;;;;;;8.93;7.40;;;11.80;31.00;;;10.77;27.45;99446.28;5014209;28;20548;-67
2022/03/22 10:33:04;;;;;;;8.37;7.67;;;11.80;30.60;;;10.82;27.31;99437.63;5014148;28;20525;-66
2022/03/22 10:35:33;;;;;;;9.23;7.80;;;11.90;30.50;;;10.96;27.69;99433.25;5013060;28;20541;-66
2022/03/22 10:38:02;;;;;;;7.83;6.77;;;12.00;30.60;;;11.13;26.82;99435.81;5014167;28;20500;-66
2022/03/22 10:40:34;;;;;;;7.97;7.10;;;12.20;30.60;;;11.36;26.56;99426.81;5013832;28;20445;-66
2022/03/22 10:43:05;;;;;;;8.73;7.73;;;12.40;30.50;;;11.28;25.50;99431.25;5013151;28;20837;-66
2022/03/22 10:45:43;;;;;;;8.80;6.40;;;12.40;29.60;;;11.15;25.27;99431.09;5013798;28;20906;-71
2022/03/22 10:48:10;;;;;;;6.93;6.23;;;12.40;29.50;;;11.26;25.30;99429.78;5013260;28;20866;-72
2022/03/22 10:50:38;;;;;;;13.67;6.63;;;12.30;29.40;;;11.35;25.00;99431.34;5011880;28;21025;-73
2022/03/22 10:53:06;;;;;;;7.10;6.40;;;12.40;29.40;;;11.39;24.24;99424.56;5028803;28;20523;-73